Terminal Aerodrome Forecast
Issued by NWS

Home | Current Version | Previous Version | Graphics & Text | Print | Product List | Glossary On
Versions: 1 2 3 4 5 6 7 8 9 10 11 12 13 14 15 16 17 18 19 20 21 22 23 24 25 26 27 28 29 30
000
FTUS43 KABR 281100
TAFATY
TAF
KATY 281139Z 2812/2912 13006KT P6SM FEW010 BKN070 OVC120
      TEMPO 2812/2815 5SM -DZ BKN010 OVC070
     FM281500 12007KT 4SM -SHRA BKN011 BKN060 OVC100
     FM290000 VRB06KT P6SM OVC015
     FM290600 VRB06KT 2SM BR OVC006=

USA.gov is the U.S. government's official web portal to all federal, state and local government web resources and services.